createdAt,value
2022-09-26T00:01:44.082Z,99086.87
2022-09-26T00:04:27.931Z,99082.50
2022-09-26T00:06:58.618Z,99076.38
2022-09-26T00:09:27.982Z,99073.84
2022-09-26T00:11:55.817Z,99071.94
2022-09-26T00:14:28.310Z,99071.56
2022-09-26T00:16:56.760Z,99078.63
2022-09-26T00:19:24.955Z,99081.97
2022-09-26T00:21:52.852Z,99083.00
2022-09-26T00:24:22.315Z,99074.62
2022-09-26T00:26:51.652Z,99078.41
2022-09-26T00:29:20.661Z,99071.31
2022-09-26T00:31:49.391Z,99072.06
2022-09-26T00:34:19.474Z,99060.78
2022-09-26T00:36:52.832Z,99057.44
2022-09-26T00:39:20.450Z,99050.81
2022-09-26T00:41:50.140Z,99043.50
2022-09-26T00:44:46.339Z,99051.91
2022-09-26T00:47:20.928Z,99053.25
2022-09-26T00:49:57.009Z,99048.84
2022-09-26T00:52:29.219Z,99044.72
2022-09-26T00:54:59.008Z,99029.50
2022-09-26T00:57:37.422Z,99026.72
2022-09-26T01:00:10.081Z,99029.16
2022-09-26T01:02:42.893Z,99027.88
2022-09-26T01:05:13.488Z,99019.50
2022-09-26T01:07:41.058Z,99021.88
2022-09-26T01:10:09.966Z,99023.25
2022-09-26T01:12:39.674Z,99016.78
2022-09-26T01:15:09.232Z,99008.94
2022-09-26T01:17:42.636Z,99017.84
2022-09-26T01:20:15.947Z,99024.59
2022-09-26T01:23:06.711Z,99019.22
2022-09-26T01:26:05.838Z,99012.38
2022-09-26T01:29:01.057Z,99010.31
2022-09-26T01:32:11.935Z,99010.28
2022-09-26T01:34:50.946Z,99004.75
2022-09-26T01:37:34.824Z,99007.25
2022-09-26T01:40:32.710Z,99002.69
2022-09-26T01:43:20.612Z,98991.12
2022-09-26T01:45:57.160Z,98994.66
2022-09-26T01:48:37.716Z,99003.75
2022-09-26T01:51:09.933Z,98996.50
2022-09-26T01:53:51.415Z,98989.00
2022-09-26T01:56:22.495Z,98982.84
2022-09-26T01:58:55.495Z,98981.16
2022-09-26T02:01:25.934Z,98969.19
2022-09-26T02:04:05.016Z,98973.94
2022-09-26T02:06:38.480Z,98979.34
2022-09-26T02:09:33.595Z,98967.59
2022-09-26T02:12:07.129Z,98969.63
2022-09-26T02:14:38.528Z,98971.72
2022-09-26T02:17:15.538Z,98966.31
2022-09-26T02:19:43.678Z,98962.63
2022-09-26T02:22:11.341Z,98966.63
2022-09-26T02:24:44.254Z,98986.94
2022-09-26T02:27:13.313Z,98988.22
2022-09-26T02:29:41.310Z,99002.91
2022-09-26T02:32:17.221Z,99002.09
2022-09-26T02:34:47.620Z,99009.50
2022-09-26T02:37:21.004Z,99005.97
2022-09-26T02:39:50.600Z,98998.34
2022-09-26T02:42:28.679Z,98981.41
2022-09-26T02:45:16.036Z,98962.22
2022-09-26T02:48:21.166Z,98958.13
2022-09-26T02:51:07.854Z,98964.91
2022-09-26T02:54:02.879Z,98963.47
2022-09-26T02:57:04.792Z,98961.16
2022-09-26T03:00:04.083Z,98978.78
2022-09-26T03:02:50.703Z,98968.19
2022-09-26T03:05:23.788Z,98969.66
2022-09-26T03:08:07.886Z,98959.28
2022-09-26T03:10:37.614Z,98958.25
2022-09-26T03:13:14.827Z,98945.66
2022-09-26T03:15:54.253Z,98947.28
2022-09-26T03:18:28.657Z,98955.75
2022-09-26T03:20:57.321Z,98955.56
2022-09-26T03:23:28.391Z,98954.78
2022-09-26T03:26:03.596Z,98943.59
2022-09-26T03:28:37.870Z,98937.81
2022-09-26T03:31:22.435Z,98920.03
2022-09-26T03:33:52.629Z,98927.84
2022-09-26T03:36:23.832Z,98917.31
2022-09-26T03:38:52.600Z,98911.78
2022-09-26T03:41:27.099Z,98920.44
2022-09-26T03:44:25.871Z,98910.03
2022-09-26T03:46:57.556Z,98910.09
2022-09-26T03:49:26.266Z,98912.41
2022-09-26T03:51:55.941Z,98905.13
2022-09-26T03:54:29.046Z,98886.13
2022-09-26T03:57:00.659Z,98894.78
2022-09-26T03:59:37.416Z,98890.69
2022-09-26T04:02:13.315Z,98885.50
2022-09-26T04:04:45.561Z,98880.78
2022-09-26T04:07:16.815Z,98879.72
2022-09-26T04:09:46.042Z,98874.13
2022-09-26T04:12:15.651Z,98884.28
2022-09-26T04:14:48.592Z,98878.69
2022-09-26T04:17:20.794Z,98868.38
2022-09-26T04:19:51.549Z,98869.19
2022-09-26T04:22:19.673Z,98873.09
2022-09-26T04:24:50.069Z,98873.66
2022-09-26T04:27:22.255Z,98867.47
2022-09-26T04:29:51.145Z,98862.34
2022-09-26T04:32:22.618Z,98872.81
2022-09-26T04:35:10.088Z,98858.84
2022-09-26T04:37:42.407Z,98865.03
2022-09-26T04:40:14.803Z,98862.09
2022-09-26T04:42:49.840Z,98857.19
2022-09-26T04:45:19.073Z,98864.03
2022-09-26T04:47:48.968Z,98869.59
2022-09-26T04:50:22.043Z,98869.59
2022-09-26T04:53:07.082Z,98874.56
2022-09-26T04:55:38.229Z,98887.28
2022-09-26T04:58:06.886Z,98891.72
2022-09-26T05:00:35.284Z,98880.28
2022-09-26T05:03:08.371Z,98875.78
2022-09-26T05:05:37.679Z,98886.09
2022-09-26T05:08:07.727Z,98888.94
2022-09-26T05:10:36.115Z,98881.34
2022-09-26T05:13:06.413Z,98887.38
2022-09-26T05:15:40.018Z,98882.00
2022-09-26T05:18:08.678Z,98882.41
2022-09-26T05:20:39.352Z,98882.22
2022-09-26T05:23:10.689Z,98880.34
2022-09-26T05:25:59.125Z,98879.75
2022-09-26T05:28:29.064Z,98874.97
2022-09-26T05:30:57.670Z,98869.19
2022-09-26T05:33:35.109Z,98875.38
2022-09-26T05:36:03.672Z,98867.09
2022-09-26T05:38:36.393Z,98876.62
2022-09-26T05:41:04.468Z,98879.09
2022-09-26T05:43:33.858Z,98869.78
2022-09-26T05:46:05.608Z,98880.34
2022-09-26T05:48:36.681Z,98895.44
2022-09-26T05:51:16.766Z,98891.09
2022-09-26T05:53:46.541Z,98889.44
2022-09-26T05:56:24.889Z,98889.03
2022-09-26T05:58:55.264Z,98884.06
2022-09-26T06:01:24.438Z,98874.56
2022-09-26T06:03:55.003Z,98872.09
2022-09-26T06:06:23.910Z,98873.09
2022-09-26T06:08:54.643Z,98850.56
2022-09-26T06:11:30.991Z,98850.37
2022-09-26T06:14:01.368Z,98841.69
2022-09-26T06:16:29.413Z,98849.13
2022-09-26T06:19:00.208Z,98842.31
2022-09-26T06:21:30.029Z,98848.09
2022-09-26T06:24:00.448Z,98847.06
2022-09-26T06:26:32.263Z,98850.34
2022-09-26T06:29:00.950Z,98848.50
2022-09-26T06:31:41.166Z,98847.69
2022-09-26T06:34:16.077Z,98855.97
2022-09-26T06:36:47.250Z,98869.19
2022-09-26T06:39:21.202Z,98859.25
2022-09-26T06:41:53.272Z,98866.72
2022-09-26T06:44:26.511Z,98865.03
2022-09-26T06:47:00.971Z,98869.78
2022-09-26T06:49:49.170Z,98871.03
2022-09-26T06:52:23.049Z,98870.00
2022-09-26T06:54:56.851Z,98865.03
2022-09-26T06:57:24.949Z,98857.19
2022-09-26T06:59:54.076Z,98863.59
2022-09-26T07:02:22.079Z,98861.53
2022-09-26T07:04:52.611Z,98867.75
2022-09-26T07:07:20.766Z,98856.56
2022-09-26T07:09:56.681Z,98861.72
2022-09-26T07:12:31.453Z,98857.19
2022-09-26T07:15:02.392Z,98857.81
2022-09-26T07:17:33.104Z,98858.81
2022-09-26T07:20:03.555Z,98854.47
2022-09-26T07:22:48.774Z,98861.72
2022-09-26T07:25:18.960Z,98862.53
2022-09-26T07:27:58.991Z,98863.81
2022-09-26T07:30:28.449Z,98861.34
2022-09-26T07:33:03.847Z,98867.53
2022-09-26T07:35:36.552Z,98879.09
2022-09-26T07:38:06.630Z,98885.28
2022-09-26T07:40:34.815Z,98885.06
2022-09-26T07:43:19.820Z,98883.19
2022-09-26T07:46:33.564Z,98897.22
2022-09-26T07:49:22.272Z,98904.31
2022-09-26T07:51:56.765Z,98898.94
2022-09-26T07:54:25.904Z,98910.75
2022-09-26T07:56:54.771Z,98911.53
2022-09-26T07:59:23.573Z,98903.53
2022-09-26T08:01:58.351Z,98907.88
2022-09-26T08:04:32.119Z,98894.81
2022-09-26T08:07:00.395Z,98903.13
2022-09-26T08:09:28.685Z,98897.63
2022-09-26T08:11:57.643Z,98895.97
2022-09-26T08:14:27.238Z,98895.63
2022-09-26T08:16:56.055Z,98898.06
2022-09-26T08:19:25.787Z,98898.88
2022-09-26T08:21:53.640Z,98896.91
2022-09-26T08:24:21.568Z,98908.47
2022-09-26T08:26:50.074Z,98902.06
2022-09-26T08:29:19.863Z,98897.72
2022-09-26T08:31:51.460Z,98898.94
2022-09-26T08:34:25.386Z,98901.00
2022-09-26T08:36:55.676Z,98902.00
2022-09-26T08:39:24.096Z,98909.22
2022-09-26T08:42:34.398Z,98915.84
2022-09-26T08:45:33.131Z,98907.22
2022-09-26T08:48:15.411Z,98903.44
2022-09-26T08:50:52.062Z,98905.91
2022-09-26T08:53:24.554Z,98909.47
2022-09-26T08:55:53.824Z,98908.12
2022-09-26T08:58:29.213Z,98909.16
2022-09-26T09:01:02.860Z,98906.97
2022-09-26T09:03:57.613Z,98909.47
2022-09-26T09:06:27.191Z,98920.41
2022-09-26T09:08:56.673Z,98920.94
2022-09-26T09:11:30.899Z,98918.78
2022-09-26T09:14:11.558Z,98914.22
2022-09-26T09:17:00.811Z,98920.41
2022-09-26T09:19:49.017Z,98918.37
2022-09-26T09:22:40.961Z,98915.62
2022-09-26T09:25:22.008Z,98911.87
2022-09-26T09:28:16.254Z,98904.78
2022-09-26T09:30:55.094Z,98909.31
2022-09-26T09:33:37.127Z,98902.06
2022-09-26T09:36:10.257Z,98899.66
2022-09-26T09:38:39.672Z,98900.19
2022-09-26T09:41:42.963Z,98895.56
2022-09-26T09:44:26.695Z,98895.81
2022-09-26T09:46:54.206Z,98887.00
2022-09-26T09:49:23.859Z,98885.28
2022-09-26T09:52:22.058Z,98878.28
2022-09-26T09:55:11.686Z,98871.72
2022-09-26T09:57:57.097Z,98879.06
2022-09-26T10:00:27.689Z,98877.97
2022-09-26T10:03:14.931Z,98874.59
2022-09-26T10:05:47.461Z,98876.69
2022-09-26T10:08:27.819Z,98874.38
2022-09-26T10:11:34.779Z,98877.56
2022-09-26T10:14:07.845Z,98866.00
2022-09-26T10:17:12.209Z,98861.16
2022-09-26T10:19:45.085Z,98872.56
2022-09-26T10:22:27.347Z,98875.81
2022-09-26T10:25:16.835Z,98873.06
2022-09-26T10:27:50.792Z,98884.03
2022-09-26T10:30:18.871Z,98889.44
2022-09-26T10:32:50.807Z,98876.94
2022-09-26T10:35:25.503Z,98896.75
2022-09-26T10:38:06.402Z,98910.41
2022-09-26T10:40:51.264Z,98901.38
2022-09-26T10:43:31.902Z,98898.91
2022-09-26T10:46:06.519Z,98898.91
2022-09-26T10:49:02.437Z,98887.16
2022-09-26T10:51:42.361Z,98881.16
2022-09-26T10:54:13.565Z,98891.22
2022-09-26T10:56:46.353Z,98891.53
2022-09-26T10:59:18.683Z,98894.50
2022-09-26T11:01:55.947Z,98902.56
2022-09-26T11:04:45.609Z,98899.41
2022-09-26T11:07:24.899Z,98891.97
2022-09-26T11:10:00.006Z,98892.75
2022-09-26T11:12:31.717Z,98903.53
2022-09-26T11:15:01.615Z,98901.91
2022-09-26T11:17:48.873Z,98909.31
2022-09-26T11:20:35.583Z,98900.62
2022-09-26T11:23:35.023Z,98889.94
2022-09-26T11:26:27.968Z,98887.63
2022-09-26T11:29:20.581Z,98889.81
2022-09-26T11:31:48.941Z,98894.06
2022-09-26T11:34:27.862Z,98893.84
2022-09-26T11:37:10.600Z,98880.28
2022-09-26T11:40:10.143Z,98879.81
2022-09-26T11:42:53.050Z,98885.38
2022-09-26T11:45:53.652Z,98887.63
2022-09-26T11:48:23.681Z,98886.44
2022-09-26T11:50:59.028Z,98886.34
2022-09-26T11:54:06.865Z,98887.41
2022-09-26T11:57:16.126Z,98882.91
2022-09-26T12:00:02.667Z,98887.03
2022-09-26T12:03:05.693Z,98892.12
2022-09-26T12:05:57.161Z,98886.13
2022-09-26T12:08:47.385Z,98882.84
2022-09-26T12:11:45.886Z,98871.06
2022-09-26T12:14:54.286Z,98863.88
2022-09-26T12:17:44.057Z,98857.50
2022-09-26T12:20:53.360Z,98863.03
2022-09-26T12:23:35.155Z,98844.75
2022-09-26T12:26:34.870Z,98839.41
2022-09-26T12:29:05.972Z,98840.16
2022-09-26T12:31:50.767Z,98832.31
2022-09-26T12:34:30.301Z,98840.59
2022-09-26T12:37:25.414Z,98837.41
2022-09-26T12:40:01.812Z,98828.13
2022-09-26T12:42:49.511Z,98834.37
2022-09-26T12:46:04.684Z,98827.47
2022-09-26T12:49:14.813Z,98824.19
2022-09-26T12:51:52.917Z,98828.06
2022-09-26T12:54:33.639Z,98819.72
2022-09-26T12:57:53.220Z,98813.13
2022-09-26T13:00:25.450Z,98819.97
2022-09-26T13:03:28.384Z,98819.25
2022-09-26T13:06:08.734Z,98811.97
2022-09-26T13:08:57.597Z,98819.75
2022-09-26T13:11:48.563Z,98827.41
2022-09-26T13:14:28.276Z,98821.63
2022-09-26T13:17:10.674Z,98817.56
2022-09-26T13:20:17.660Z,98817.13
2022-09-26T13:22:57.018Z,98816.47
2022-09-26T13:25:56.727Z,98812.41
2022-09-26T13:28:55.488Z,98813.25
2022-09-26T13:31:56.259Z,98810.91
2022-09-26T13:34:38.113Z,98812.91
2022-09-26T13:37:21.524Z,98816.91
2022-09-26T13:40:03.652Z,98825.13
2022-09-26T13:42:45.296Z,98821.28
2022-09-26T13:45:25.690Z,98821.50
2022-09-26T13:48:02.962Z,98829.97
2022-09-26T13:50:34.063Z,98826.53
2022-09-26T13:53:18.121Z,98827.97
2022-09-26T13:56:05.829Z,98817.50
2022-09-26T13:58:40.396Z,98818.69
2022-09-26T14:01:28.007Z,98806.44
2022-09-26T14:04:21.484Z,98800.09
2022-09-26T14:07:29.913Z,98803.03
2022-09-26T14:10:12.391Z,98807.59
2022-09-26T14:13:08.476Z,98807.50
2022-09-26T14:15:48.573Z,98803.03
2022-09-26T14:18:28.294Z,98785.12
2022-09-26T14:20:55.977Z,98785.38
2022-09-26T14:24:12.958Z,98779.53
2022-09-26T14:26:45.029Z,98768.94
2022-09-26T14:29:35.873Z,98765.72
2022-09-26T14:32:12.572Z,98766.09
2022-09-26T14:34:57.670Z,98763.41
2022-09-26T14:37:30.629Z,98765.50
2022-09-26T14:40:10.304Z,98768.56
2022-09-26T14:42:47.316Z,98761.88
2022-09-26T14:45:25.753Z,98769.16
2022-09-26T14:48:15.480Z,98756.22
2022-09-26T14:50:59.360Z,98761.97
2022-09-26T14:54:01.302Z,98758.72
2022-09-26T14:56:32.961Z,98761.03
2022-09-26T14:59:17.219Z,98763.41
2022-09-26T15:01:46.956Z,98756.56
2022-09-26T15:04:31.519Z,98761.31
2022-09-26T15:07:06.350Z,98757.06
2022-09-26T15:09:57.148Z,98745.53
2022-09-26T15:12:48.549Z,98736.91
2022-09-26T15:15:56.564Z,98743.31
2022-09-26T15:18:27.200Z,98739.16
2022-09-26T15:21:04.187Z,98732.12
2022-09-26T15:23:45.776Z,98729.88
2022-09-26T15:26:25.757Z,98727.87
2022-09-26T15:28:55.169Z,98740.81
2022-09-26T15:31:25.932Z,98736.13
2022-09-26T15:34:04.608Z,98731.78
2022-09-26T15:36:38.764Z,98735.06
2022-09-26T15:39:36.752Z,98736.00
2022-09-26T15:42:37.678Z,98735.19
2022-09-26T15:45:30.637Z,98739.66
2022-09-26T15:48:24.073Z,98738.41
2022-09-26T15:50:59.170Z,98744.22
2022-09-26T15:53:55.671Z,98737.69
2022-09-26T15:56:35.027Z,98734.56
2022-09-26T15:59:03.737Z,98731.59
2022-09-26T16:01:35.029Z,98737.06
2022-09-26T16:04:14.326Z,98734.31
2022-09-26T16:07:07.855Z,98749.34
2022-09-26T16:09:40.911Z,98750.50
2022-09-26T16:12:15.593Z,98740.75
2022-09-26T16:14:50.252Z,98735.56
2022-09-26T16:17:34.996Z,98742.13
2022-09-26T16:20:25.765Z,98738.84
2022-09-26T16:23:05.669Z,98738.03
2022-09-26T16:25:42.709Z,98738.13
2022-09-26T16:28:11.343Z,98740.38
2022-09-26T16:30:42.581Z,98744.03
2022-09-26T16:33:25.990Z,98738.50
2022-09-26T16:35:54.513Z,98742.16
2022-09-26T16:38:36.431Z,98733.03
2022-09-26T16:41:10.405Z,98733.16
2022-09-26T16:43:39.199Z,98731.84
2022-09-26T16:46:19.521Z,98729.91
2022-09-26T16:48:56.941Z,98726.13
2022-09-26T16:51:41.655Z,98719.34
2022-09-26T16:54:19.962Z,98726.97
2022-09-26T16:56:52.960Z,98723.69
2022-09-26T16:59:32.934Z,98723.69
2022-09-26T17:02:11.018Z,98718.91
2022-09-26T17:04:40.222Z,98723.81
2022-09-26T17:07:13.127Z,98721.00
2022-09-26T17:09:43.604Z,98722.22
2022-09-26T17:12:25.010Z,98727.41
2022-09-26T17:14:57.300Z,98731.44
2022-09-26T17:17:26.041Z,98731.72
2022-09-26T17:19:59.547Z,98735.44
2022-09-26T17:22:28.534Z,98737.97
2022-09-26T17:24:56.516Z,98738.91
2022-09-26T17:27:29.054Z,98736.63
2022-09-26T17:30:01.004Z,98733.19
2022-09-26T17:32:37.556Z,98733.81
2022-09-26T17:35:20.171Z,98744.13
2022-09-26T17:37:48.191Z,98742.06
2022-09-26T17:40:24.679Z,98742.31
2022-09-26T17:42:57.212Z,98731.09
2022-09-26T17:45:37.862Z,98735.84
2022-09-26T17:48:27.173Z,98731.03
2022-09-26T17:51:03.069Z,98725.00
2022-09-26T17:53:38.918Z,98732.50
2022-09-26T17:56:13.145Z,98725.63
2022-09-26T17:59:00.261Z,98727.38
2022-09-26T18:01:40.780Z,98718.69
2022-09-26T18:04:13.508Z,98724.66
2022-09-26T18:06:43.381Z,98730.66
2022-09-26T18:09:18.981Z,98728.37
2022-09-26T18:12:00.135Z,98733.13
2022-09-26T18:14:39.151Z,98735.66
2022-09-26T18:17:18.704Z,98735.25
2022-09-26T18:20:11.385Z,98731.31
2022-09-26T18:22:41.477Z,98723.44
2022-09-26T18:25:18.809Z,98730.81
2022-09-26T18:27:53.803Z,98729.03
2022-09-26T18:30:26.554Z,98732.75
2022-09-26T18:32:56.718Z,98734.22
2022-09-26T18:35:51.260Z,98724.50
2022-09-26T18:38:40.673Z,98731.53
2022-09-26T18:41:30.811Z,98730.41
2022-09-26T18:44:19.558Z,98728.94
2022-09-26T18:47:01.857Z,98721.78
2022-09-26T18:49:45.391Z,98721.34
2022-09-26T18:52:46.510Z,98719.69
2022-09-26T18:55:43.393Z,98724.38
2022-09-26T18:58:31.963Z,98723.06
2022-09-26T19:01:30.056Z,98727.84
2022-09-26T19:04:04.717Z,98731.50
2022-09-26T19:06:40.270Z,98731.72
2022-09-26T19:12:32.764Z,98726.59
2022-09-26T19:15:12.710Z,98732.22
2022-09-26T19:17:45.024Z,98731.00
2022-09-26T19:20:16.670Z,98731.34
2022-09-26T19:22:46.087Z,98737.22
2022-09-26T19:25:16.220Z,98746.66
2022-09-26T19:27:57.656Z,98742.84
2022-09-26T19:30:27.841Z,98748.00
2022-09-26T19:32:57.333Z,98740.56
2022-09-26T19:35:34.735Z,98742.22
2022-09-26T19:38:07.755Z,98737.59
2022-09-26T19:40:38.633Z,98736.69
2022-09-26T19:43:13.670Z,98741.94
2022-09-26T19:45:58.845Z,98749.06
2022-09-26T19:48:48.258Z,98759.50
2022-09-26T19:51:23.052Z,98751.13
2022-09-26T19:53:53.179Z,98747.34
2022-09-26T19:56:26.155Z,98740.12
2022-09-26T19:58:54.696Z,98742.63
2022-09-26T20:01:28.573Z,98741.09
2022-09-26T20:03:59.958Z,98740.41
2022-09-26T20:06:37.278Z,98738.59
2022-09-26T20:09:18.248Z,98731.91
2022-09-26T20:11:52.019Z,98733.63
2022-09-26T20:14:23.971Z,98725.50
2022-09-26T20:17:05.146Z,98724.59
2022-09-26T20:19:43.754Z,98732.12
2022-09-26T20:22:25.100Z,98719.87
2022-09-26T20:24:57.887Z,98728.78
2022-09-26T20:27:36.312Z,98730.88
2022-09-26T20:30:39.566Z,98729.91
2022-09-26T20:33:24.062Z,98722.91
2022-09-26T20:36:05.692Z,98726.47
2022-09-26T20:38:48.659Z,98724.00
2022-09-26T20:41:31.433Z,98722.81
2022-09-26T20:44:22.132Z,98724.44
2022-09-26T20:46:54.984Z,98736.16
2022-09-26T20:49:54.024Z,98727.31
2022-09-26T20:52:32.195Z,98732.31
2022-09-26T20:55:02.958Z,98728.59
2022-09-26T20:57:35.062Z,98734.50
2022-09-26T21:00:17.975Z,98726.84
2022-09-26T21:02:54.349Z,98730.19
2022-09-26T21:05:24.919Z,98717.62
2022-09-26T21:07:54.494Z,98727.16
2022-09-26T21:10:29.044Z,98719.53
2022-09-26T21:12:57.913Z,98726.13
2022-09-26T21:15:27.888Z,98715.09
2022-09-26T21:17:55.652Z,98710.41
2022-09-26T21:20:29.985Z,98697.50
2022-09-26T21:22:58.270Z,98708.41
2022-09-26T21:25:31.201Z,98703.56
2022-09-26T21:28:06.591Z,98703.78
2022-09-26T21:30:34.446Z,98704.84
2022-09-26T21:33:01.937Z,98698.84
2022-09-26T21:35:31.159Z,98710.88
2022-09-26T21:37:59.700Z,98708.19
2022-09-26T21:40:29.871Z,98700.34
2022-09-26T21:43:02.776Z,98700.13
2022-09-26T21:45:34.054Z,98696.56
2022-09-26T21:48:01.662Z,98690.72
2022-09-26T21:50:29.379Z,98697.06
2022-09-26T21:53:01.838Z,98697.03
2022-09-26T21:55:33.979Z,98693.28
2022-09-26T21:58:07.463Z,98693.31
2022-09-26T22:00:35.125Z,98691.44
2022-09-26T22:03:02.831Z,98680.00
2022-09-26T22:05:31.011Z,98675.66
2022-09-26T22:07:58.964Z,98679.94
2022-09-26T22:10:29.392Z,98675.97
2022-09-26T22:12:57.063Z,98679.06
2022-09-26T22:15:24.581Z,98659.22
2022-09-26T22:17:53.130Z,98667.53
2022-09-26T22:20:21.898Z,98662.56
2022-09-26T22:22:50.810Z,98661.75
2022-09-26T22:25:21.542Z,98661.13
2022-09-26T22:27:48.943Z,98663.25
2022-09-26T22:30:19.372Z,98661.59
2022-09-26T22:32:47.145Z,98651.91
2022-09-26T22:35:15.136Z,98647.69
2022-09-26T22:37:42.617Z,98646.66
2022-09-26T22:40:10.600Z,98642.72
2022-09-26T22:42:40.514Z,98636.78
2022-09-26T22:45:11.678Z,98628.69
2022-09-26T22:47:39.403Z,98633.53
2022-09-26T22:50:07.133Z,98627.25
2022-09-26T22:52:34.557Z,98618.81
2022-09-26T22:55:05.869Z,98622.50
2022-09-26T22:57:36.046Z,98613.84
2022-09-26T23:00:04.987Z,98611.13
2022-09-26T23:02:32.441Z,98618.34
2022-09-26T23:04:59.884Z,98610.97
2022-09-26T23:07:27.598Z,98601.34
2022-09-26T23:09:55.048Z,98589.94
2022-09-26T23:12:22.621Z,98589.69
2022-09-26T23:14:50.336Z,98584.56
2022-09-26T23:17:17.849Z,98580.81
2022-09-26T23:19:45.488Z,98585.34
2022-09-26T23:22:13.755Z,98574.44
2022-09-26T23:24:41.162Z,98566.72
2022-09-26T23:27:08.632Z,98569.19
2022-09-26T23:29:37.054Z,98571.28
2022-09-26T23:32:10.698Z,98572.53
2022-09-26T23:34:38.386Z,98562.25
2022-09-26T23:37:05.795Z,98570.31
2022-09-26T23:39:35.498Z,98558.75
2022-09-26T23:42:03.544Z,98560.41
2022-09-26T23:44:32.559Z,98562.69
2022-09-26T23:47:04.275Z,98550.66
2022-09-26T23:49:32.006Z,98551.53
2022-09-26T23:51:59.529Z,98552.13
2022-09-26T23:54:27.388Z,98548.00
2022-09-26T23:56:55.962Z,98548.13
2022-09-26T23:59:23.385Z,98534.59
